ED1ZAU
43.23.04N 005.52.75W
IN73BJ aprs.fi
zuletzt gehoert:
2021-06-13T06:06:09Z
zuerst gehoert:
2020-02-10T15:05:06Z

APRS Oviedo [IN73BJ], 0 Stunde(n), ED1ZAU [08:16:03, 0s].
ED1ZAU 43.23.04N 005.52.75WIN73BJ 0.419km 274°W06:06:09ZRD625 438.5000/430.9000 CC1
EA1YR 43.22.09N 005.51.86WIN73BI 1.882km 155°SSE06:04:56ZMMDVM DVS 434.3500/434.3500 CC1
33D00 43.21.63N 005.51.13WIN73BI 3.136km 145°SE06:01:43Z33-D-00 Protección Civil REMER / Delegación del Gobierno en Asturias
LEHU 43.22.63N 005.49.57WIN73CJ 3.934km 101°E06:00:11ZHelipuerto del HUCA: LEAS 130530Z 17004KT 120V200 4000 BR FEW002 BKN004 16/16 Q1021 TEMPO 5000=
EA1L 43.20.37N 005.51.13WIN73BI 5.212km 160°SSE06:10:05Zea1l@ure.es V=11.8V,T=??.?C
Wind 043°/000kn, Böen bis 002kn, Temp 22.22c, Regen 0.0mm, letzte 24h 0.0mm, seit 0h 0.0mm, Baro 1019.3h, Hum: 0%(2EA1L-13)
LEMR 43.25.83N 005.49.60WIN73CK 6.454km 36°NE06:00:11ZAerodromo de la Morgal: LEAS 130530Z 17004KT 120V200 4000 BR FEW002 BKN004 16/16 Q1021 TEMPO 5000=
LEGM 43.26.15N 005.49.84WIN73CK 6.790km 31°NNE06:00:09ZHelipuerto de La Morgal: LEAS 130530Z 17004KT 120V200 4000 BR FEW002 BKN004 16/16 Q1021 TEMPO 5000=
EA1IN 43.25.16N 005.47.43WIN73CK 7.820km 60°ENE06:05:04ZMMDVM MMDVM HS Hat 434.7000/434.7000 CC1
ED1ZAY 43.29.47N 005.56.54WIN73AL 13.173km 335°NNW06:06:08ZRD625 438.3000/430.7000 CC1
EA1IMW 43.14.36N 005.46.93WIN73CF 17.695km 155°SSE06:04:16ZGRUPO RADIO GALENA (GRG) 433.4500/433.4500 CC1
ED1ZAE 43.27.99N 005.40.54WIN73DL 18.470km 60°ENE06:07:43ZWIDE3-3 ESAS3-3 IN73DL WWW.EA1URG.ORG(3ED1ZAE-3)
ED1ZAS 43.27.52N 005.40.17WIN73DL 18.504km 63°ENE06:05:59ZRD985 438.2250/430.6250 CC1
EA1IZV 43.33.25N 005.55.92WIN73AN 19.518km 346°NNW06:00:05ZEn proceso...
EA1JBL 43.12.28N 005.47.42WIN73CE 21.010km 161°SSE06:04:13ZMMDVM DVMega 435.3000/435.3000 CC1
EB1DGC 43.12.60N 005.45.59WIN73CF 21.411km 154°SSE06:03:49ZMMDVM MMDVM HS Hat 433.4500/433.4500 CC1
EA1HWA 43.12.00N 005.47.40WIN73CE 21.533km 162°SSE06:03:50ZMMDVM MMDVM HS Hat 433.4500/433.4500 CC1
EA1FLQ 43.22.00N 005.36.35WIN73EI 21.754km 95°E06:01:50ZMMDVM DVMega 430.9750/430.9750 CC1
EB1TK 43.32.22N 005.42.32WIN73DM 21.831km 39°NE06:15:18ZWind 186°/003kn, Böen bis 007kn, Temp 17.78c, Regen 0.0mm, letzte 24h 0.0mm, seit 0h 0.0mm, Baro 1024.0h, Hum: 93%(3EB1TK-13)
EA1DHE 43.33.98N 005.58.57WIN73AN 21.923km 338°NNW06:05:18ZMMDVM DVS 434.3500/434.3500 CC1
EA1IEJ 43.31.81N 005.40.64WIN73DM 22.759km 44°NE06:01:34ZMMDVM MMDVM HS Hat 438.8500/438.8500 CC6
EA1DZR 43.31.47N 005.40.00WIN73DM 22.911km 47°NE06:05:30ZMMDVM DVS 434.3500/434.3500 CC1
LEEL 43.32.98N 005.41.71WIN73DN 23.421km 38°NE06:00:11ZHelipuerto de El Musel: LEAS 130530Z 17004KT 120V200 4000 BR FEW002 BKN004 16/16 Q1021 TEMPO 5000=
EA1RCG 43.09.45N 005.49.78WIN73CD 25.388km 172°S06:04:42ZGRUPO RADIO GALENA (GRG) 433.4500/433.4500 CC1
EB1GEM 43.30.00N 005.36.07WIN73EM 25.558km 59°ENE06:12:34ZWX3in1Plus2.0 U=13.3V,T=??.?C/??.?F(3EB1GEM-3)
EA1HJA 43.28.10N 005.30.45WIN73FL 31.064km 72°ENE06:12:38ZEA1HJA@URE.ES
IN73FL WX3IN1+ 2.0 - V=13.3V,TX TEMP=30.6C(2EA1HJA-2)
ED1ZAD 43.07.90N 005.38.52WIN73ED 33.722km 146°SE06:15:19ZED1ZAD-3 APRS Digi/Igate(3ED1ZAD-3)
EA1JAY 43.29.33N 005.26.78WIN73GL 36.468km 71°ENE06:15:04Z434.525MHz Nodo TETRA DMO(3EA1JAY-4)
EA1JAY(2EA1JAY-2)
EA1FHR 43.28.72N 005.26.41WIN73GL 36.582km 73°ENE06:01:26ZMMDVM MMDVM HS Hat 439.1500/439.1500 CC1
EA1HWD 43.28.96N 005.26.30WIN73GL 36.866km 72°ENE06:00:54Z144.575FM Local frecuency VHF. 434.2500/434.2500 CC1
EC1KV 43.34.01N 006.16.01WIN63UN 37.656km 303°WNW06:11:12Z VOLT.=13.6 V - TEMP.=??.? C(3EC1KV-1)
LETN 43.20.05N 006.22.69WIN63TI 41.124km 262°W06:00:10ZAerodromo de La Curiscada (Tineo): LEAS 130530Z 17004KT 120V200 4000 BR FEW002 BKN004 16/16 Q1021 TEMPO 5000=

aprs.pl 5.0.011w DL3EL © 2006-2021 [457578]